createdAt,value
2022-11-29T00:01:06.134Z,9.85
2022-11-29T00:02:17.785Z,8.07
2022-11-29T00:03:29.544Z,7.75
2022-11-29T00:04:41.187Z,7.47
2022-11-29T00:05:53.384Z,5.28
2022-11-29T00:07:04.873Z,8.40
2022-11-29T00:08:16.356Z,7.55
2022-11-29T00:09:27.872Z,10.13
2022-11-29T00:10:39.336Z,11.52
2022-11-29T00:12:09.613Z,11.88
2022-11-29T00:13:21.050Z,11.00
2022-11-29T00:14:32.526Z,8.82
2022-11-29T00:15:44.053Z,6.93
2022-11-29T00:16:57.210Z,7.50
2022-11-29T00:18:08.932Z,6.75
2022-11-29T00:19:20.797Z,9.07
2022-11-29T00:20:33.080Z,8.73
2022-11-29T00:21:44.535Z,9.65
2022-11-29T00:22:56.013Z,7.97
2022-11-29T00:24:07.943Z,5.15
2022-11-29T00:25:20.312Z,10.10
2022-11-29T00:26:32.021Z,13.05
2022-11-29T00:27:43.467Z,24.27
2022-11-29T00:28:55.106Z,18.45
2022-11-29T00:30:06.925Z,19.13
2022-11-29T00:31:19.844Z,15.52
2022-11-29T00:32:31.262Z,14.80
2022-11-29T00:33:42.812Z,14.82
2022-11-29T00:34:55.058Z,10.93
2022-11-29T00:36:08.740Z,10.80
2022-11-29T00:37:20.215Z,14.43
2022-11-29T00:38:31.678Z,15.70
2022-11-29T00:39:43.144Z,14.80
2022-11-29T00:40:54.635Z,13.93
2022-11-29T00:42:06.213Z,11.43
2022-11-29T00:43:17.699Z,16.95
2022-11-29T00:44:29.151Z,15.35
2022-11-29T00:45:40.600Z,22.70
2022-11-29T00:46:52.061Z,15.55
2022-11-29T00:48:03.555Z,19.98
2022-11-29T00:49:15.092Z,16.15
2022-11-29T00:50:26.548Z,12.10
2022-11-29T00:51:38.016Z,9.68
2022-11-29T00:52:49.733Z,11.70
2022-11-29T00:54:01.153Z,13.48
2022-11-29T00:55:12.565Z,9.35
2022-11-29T00:56:24.316Z,10.70
2022-11-29T00:57:35.765Z,10.57
2022-11-29T00:58:48.656Z,9.40
2022-11-29T01:00:00.136Z,10.05
2022-11-29T01:01:11.883Z,10.95
2022-11-29T01:02:23.423Z,12.02
2022-11-29T01:03:34.925Z,7.22
2022-11-29T01:04:46.738Z,6.30
2022-11-29T01:06:05.591Z,8.63
2022-11-29T01:07:17.125Z,8.13
2022-11-29T01:08:28.729Z,9.60
2022-11-29T01:09:40.227Z,10.35
2022-11-29T01:11:00.783Z,7.75
2022-11-29T01:12:12.319Z,8.07
2022-11-29T01:13:23.784Z,10.50
2022-11-29T01:14:35.717Z,8.52
2022-11-29T01:15:54.813Z,10.60
2022-11-29T01:17:06.302Z,8.55
2022-11-29T01:18:17.755Z,5.70
2022-11-29T01:19:29.181Z,8.77
2022-11-29T01:20:40.623Z,8.07
2022-11-29T01:21:52.097Z,6.47
2022-11-29T01:23:03.560Z,7.60
2022-11-29T01:24:15.062Z,6.05
2022-11-29T01:25:26.545Z,7.75
2022-11-29T01:26:38.162Z,5.35
2022-11-29T01:27:49.595Z,4.72
2022-11-29T01:29:01.045Z,6.53
2022-11-29T01:30:12.636Z,6.05
2022-11-29T01:31:25.361Z,6.15
2022-11-29T01:32:37.219Z,7.05
2022-11-29T01:33:48.827Z,5.63
2022-11-29T01:35:00.252Z,6.70
2022-11-29T01:36:12.791Z,5.53
2022-11-29T01:37:24.336Z,6.97
2022-11-29T01:38:36.225Z,6.32
2022-11-29T01:39:47.633Z,5.97
2022-11-29T01:41:28.244Z,4.60
2022-11-29T01:42:39.650Z,7.57
2022-11-29T01:43:54.257Z,7.15
2022-11-29T01:45:08.072Z,6.85
2022-11-29T01:46:19.619Z,7.03
2022-11-29T01:47:31.533Z,10.00
2022-11-29T01:48:42.973Z,9.32
2022-11-29T01:49:54.449Z,10.05
2022-11-29T01:51:05.938Z,5.70
2022-11-29T01:52:28.462Z,4.85
2022-11-29T01:53:40.096Z,7.03
2022-11-29T01:54:54.372Z,5.78
2022-11-29T01:56:06.351Z,7.90
2022-11-29T01:57:18.622Z,7.15
2022-11-29T01:58:30.321Z,4.03
2022-11-29T01:59:46.708Z,7.68
2022-11-29T02:00:58.979Z,5.18
2022-11-29T02:02:12.717Z,6.22
2022-11-29T02:03:24.674Z,8.40
2022-11-29T02:04:36.505Z,9.05
2022-11-29T02:05:50.251Z,5.78
2022-11-29T02:07:01.920Z,12.32
2022-11-29T02:08:14.324Z,11.98
2022-11-29T02:09:25.752Z,10.93
2022-11-29T02:10:49.105Z,9.68
2022-11-29T02:12:17.064Z,6.05
2022-11-29T02:13:37.347Z,5.05
2022-11-29T02:14:48.786Z,6.20
2022-11-29T02:16:04.886Z,8.70
2022-11-29T02:17:20.980Z,11.00
2022-11-29T02:18:32.394Z,8.18
2022-11-29T02:20:02.426Z,5.63
2022-11-29T02:21:13.838Z,8.18
2022-11-29T02:22:30.361Z,7.20
2022-11-29T02:23:58.977Z,6.28
2022-11-29T02:25:29.013Z,9.20
2022-11-29T02:26:52.847Z,7.55
2022-11-29T02:28:23.004Z,7.65
2022-11-29T02:29:52.979Z,7.65
2022-11-29T02:31:16.435Z,8.50
2022-11-29T02:32:50.954Z,7.82
2022-11-29T02:34:02.423Z,10.52
2022-11-29T02:35:32.461Z,8.07
2022-11-29T02:36:49.356Z,9.40
2022-11-29T02:38:00.812Z,6.50
2022-11-29T02:39:30.860Z,4.88
2022-11-29T02:40:48.272Z,7.60
2022-11-29T02:42:11.713Z,4.75
2022-11-29T02:43:41.879Z,6.57
2022-11-29T02:45:05.541Z,9.23
2022-11-29T02:46:26.123Z,5.18
2022-11-29T02:47:40.310Z,53.78
2022-11-29T02:49:07.592Z,35.47
2022-11-29T02:50:19.115Z,22.20
2022-11-29T02:51:36.335Z,17.23
2022-11-29T02:52:55.027Z,12.63
2022-11-29T02:54:06.541Z,8.13
2022-11-29T02:55:41.010Z,16.23
2022-11-29T02:56:58.712Z,8.43
2022-11-29T02:58:10.176Z,6.45
2022-11-29T02:59:50.748Z,5.93
2022-11-29T03:01:05.120Z,7.65
2022-11-29T03:02:32.445Z,7.55
2022-11-29T03:04:04.220Z,5.38
2022-11-29T03:05:29.288Z,6.53
2022-11-29T03:06:40.726Z,6.43
2022-11-29T03:07:52.176Z,5.32
2022-11-29T03:09:26.750Z,7.53
2022-11-29T03:10:38.178Z,6.18
2022-11-29T03:11:58.145Z,5.43
2022-11-29T03:13:14.792Z,7.45
2022-11-29T03:14:27.898Z,6.13
2022-11-29T03:15:45.663Z,7.78
2022-11-29T03:17:05.949Z,9.40
2022-11-29T03:18:20.507Z,7.13
2022-11-29T03:19:50.699Z,6.80
2022-11-29T03:21:08.425Z,8.13
2022-11-29T03:22:26.695Z,7.10
2022-11-29T03:23:43.367Z,7.95
2022-11-29T03:24:59.234Z,8.48
2022-11-29T03:26:13.845Z,11.85
2022-11-29T03:27:47.624Z,6.68
2022-11-29T03:29:19.286Z,8.55
2022-11-29T03:30:32.777Z,8.38
2022-11-29T03:31:50.480Z,9.50
2022-11-29T03:33:05.104Z,13.45
2022-11-29T03:34:16.706Z,10.07
2022-11-29T03:35:50.560Z,7.80
2022-11-29T03:37:15.651Z,8.82
2022-11-29T03:38:29.851Z,9.45
2022-11-29T03:39:44.253Z,10.63
2022-11-29T03:41:00.670Z,9.10
2022-11-29T03:42:17.716Z,6.25
2022-11-29T03:43:52.279Z,8.43
2022-11-29T03:45:21.904Z,8.68
2022-11-29T03:46:37.134Z,16.58
2022-11-29T03:47:56.491Z,27.45
2022-11-29T03:49:13.466Z,8.98
2022-11-29T03:50:32.553Z,10.43
2022-11-29T03:51:54.715Z,10.32
2022-11-29T03:53:15.274Z,15.77
2022-11-29T03:54:32.438Z,23.00
2022-11-29T03:55:49.810Z,27.25
2022-11-29T03:57:01.407Z,17.88
2022-11-29T03:58:27.753Z,16.13
2022-11-29T03:59:51.793Z,13.85
2022-11-29T04:01:18.219Z,14.48
2022-11-29T04:02:40.145Z,8.98
2022-11-29T04:04:06.573Z,12.50
2022-11-29T04:05:18.003Z,16.13
2022-11-29T04:06:44.764Z,14.02
2022-11-29T04:08:02.203Z,11.70
2022-11-29T04:09:22.752Z,22.70
2022-11-29T04:10:46.344Z,14.90
2022-11-29T04:12:08.773Z,16.00
2022-11-29T04:13:32.379Z,16.63
2022-11-29T04:14:44.062Z,14.45
2022-11-29T04:16:07.744Z,11.85
2022-11-29T04:17:37.776Z,21.27
2022-11-29T04:18:49.170Z,17.40
2022-11-29T04:20:10.488Z,12.27
2022-11-29T04:21:24.653Z,21.45
2022-11-29T04:22:48.229Z,55.08
2022-11-29T04:24:17.992Z,60.22
2022-11-29T04:25:45.785Z,115.25
2022-11-29T04:27:12.293Z,26.50
2022-11-29T04:28:23.756Z,19.77
2022-11-29T04:29:59.527Z,23.23
2022-11-29T04:31:23.134Z,12.93
2022-11-29T04:32:40.439Z,19.20
2022-11-29T04:33:57.672Z,21.10
2022-11-29T04:35:24.463Z,27.15
2022-11-29T04:36:54.328Z,19.15
2022-11-29T04:38:38.343Z,17.35
2022-11-29T04:39:50.013Z,12.65
2022-11-29T04:41:01.463Z,15.40
2022-11-29T04:42:12.916Z,13.75
2022-11-29T04:43:42.282Z,11.25
2022-11-29T04:45:12.248Z,6.63
2022-11-29T04:46:42.195Z,11.75
2022-11-29T04:48:10.380Z,9.77
2022-11-29T04:49:21.847Z,21.67
2022-11-29T04:50:45.599Z,18.17
2022-11-29T04:52:05.254Z,15.25
2022-11-29T04:53:16.696Z,22.85
2022-11-29T04:54:33.983Z,20.15
2022-11-29T04:56:03.915Z,26.38
2022-11-29T04:57:24.643Z,122.03
2022-11-29T04:58:54.892Z,101.18
2022-11-29T05:00:10.888Z,105.10
2022-11-29T05:01:22.577Z,117.20
2022-11-29T05:02:34.185Z,122.70
2022-11-29T05:03:56.939Z,107.65
2022-11-29T05:05:27.287Z,110.68
2022-11-29T05:06:56.901Z,90.97
2022-11-29T05:08:27.086Z,75.68
2022-11-29T05:09:44.797Z,58.85
2022-11-29T05:11:03.048Z,62.78
2022-11-29T05:12:28.920Z,48.00
2022-11-29T05:13:59.002Z,27.92
2022-11-29T05:15:16.606Z,27.73
2022-11-29T05:16:34.149Z,28.63
2022-11-29T05:17:45.537Z,24.02
2022-11-29T05:19:16.195Z,16.80
2022-11-29T05:20:36.728Z,26.17
2022-11-29T05:22:00.356Z,54.55
2022-11-29T05:23:30.703Z,42.83
2022-11-29T05:25:00.723Z,30.20
2022-11-29T05:26:19.451Z,27.77
2022-11-29T05:27:48.444Z,31.92
2022-11-29T05:29:03.303Z,29.05
2022-11-29T05:30:17.781Z,23.50
2022-11-29T05:31:29.256Z,17.15
2022-11-29T05:32:52.634Z,25.00
2022-11-29T05:34:22.812Z,20.92
2022-11-29T05:35:40.298Z,26.02
2022-11-29T05:37:01.282Z,29.77
2022-11-29T05:38:12.715Z,21.80
2022-11-29T05:39:32.776Z,22.73
2022-11-29T05:40:48.547Z,38.42
2022-11-29T05:42:26.421Z,92.45
2022-11-29T05:43:56.556Z,90.43
2022-11-29T05:45:20.176Z,50.97
2022-11-29T05:46:53.642Z,37.15
2022-11-29T05:48:17.470Z,49.72
2022-11-29T05:49:47.733Z,36.08
2022-11-29T05:51:11.436Z,26.55
2022-11-29T05:52:55.353Z,27.85
2022-11-29T05:54:09.733Z,20.70
2022-11-29T05:55:45.047Z,28.63
2022-11-29T05:57:10.685Z,32.45
2022-11-29T05:58:27.085Z,33.35
2022-11-29T05:59:41.954Z,32.85
2022-11-29T06:01:05.570Z,29.80
2022-11-29T06:02:23.371Z,35.33
2022-11-29T06:03:41.181Z,37.38
2022-11-29T06:04:52.726Z,34.45
2022-11-29T06:06:14.464Z,48.30
2022-11-29T06:07:41.064Z,54.88
2022-11-29T06:08:57.158Z,57.78
2022-11-29T06:10:13.582Z,54.92
2022-11-29T06:11:29.788Z,56.85
2022-11-29T06:12:42.673Z,53.72
2022-11-29T06:13:57.073Z,36.78
2022-11-29T06:15:29.134Z,45.90
2022-11-29T06:16:59.175Z,45.20
2022-11-29T06:18:10.704Z,41.97
2022-11-29T06:19:49.161Z,39.17
2022-11-29T06:21:22.273Z,42.20
2022-11-29T06:22:52.287Z,44.03
2022-11-29T06:24:06.754Z,38.58
2022-11-29T06:25:41.027Z,38.75
2022-11-29T06:26:55.253Z,39.65
2022-11-29T06:28:24.919Z,38.58
2022-11-29T06:29:39.571Z,39.90
2022-11-29T06:31:05.052Z,49.22
2022-11-29T06:32:36.153Z,36.40
2022-11-29T06:34:07.629Z,54.35
2022-11-29T06:35:28.319Z,83.93
2022-11-29T06:36:51.977Z,91.97
2022-11-29T06:38:08.335Z,92.25
2022-11-29T06:39:20.023Z,88.53
2022-11-29T06:40:31.668Z,74.57
2022-11-29T06:41:43.171Z,80.47
2022-11-29T06:42:54.625Z,67.97
2022-11-29T06:44:06.270Z,61.97
2022-11-29T06:45:17.968Z,47.78
2022-11-29T06:46:32.262Z,43.22
2022-11-29T06:47:45.048Z,48.42
2022-11-29T06:49:09.928Z,52.00
2022-11-29T06:50:27.514Z,83.80
2022-11-29T06:51:41.953Z,144.55
2022-11-29T06:52:58.412Z,158.98
2022-11-29T06:54:18.704Z,116.75
2022-11-29T06:55:43.728Z,109.80
2022-11-29T06:57:00.773Z,109.32
2022-11-29T06:58:15.176Z,119.32
2022-11-29T06:59:29.594Z,100.65
2022-11-29T07:00:41.077Z,96.28
2022-11-29T07:01:55.469Z,75.93
2022-11-29T07:03:18.647Z,63.03
2022-11-29T07:04:45.421Z,69.75
2022-11-29T07:05:58.139Z,71.95
2022-11-29T07:07:14.505Z,67.50
2022-11-29T07:08:26.352Z,64.40
2022-11-29T07:09:37.883Z,49.75
2022-11-29T07:10:51.440Z,53.63
2022-11-29T07:12:03.049Z,39.45
2022-11-29T07:13:14.544Z,49.05
2022-11-29T07:14:26.189Z,24.27
2022-11-29T07:15:38.604Z,20.20
2022-11-29T07:17:04.133Z,12.55
2022-11-29T07:18:21.414Z,10.77
2022-11-29T07:19:33.005Z,16.52
2022-11-29T07:20:47.589Z,16.13
2022-11-29T07:22:19.264Z,11.30
2022-11-29T07:23:35.488Z,17.10
2022-11-29T07:24:56.994Z,17.65
2022-11-29T07:26:11.234Z,11.27
2022-11-29T07:27:25.790Z,10.20
2022-11-29T07:28:55.739Z,9.48
2022-11-29T07:30:12.699Z,16.13
2022-11-29T07:31:53.321Z,15.43
2022-11-29T07:33:07.566Z,11.85
2022-11-29T07:34:18.958Z,16.55
2022-11-29T07:35:36.614Z,17.45
2022-11-29T07:36:48.088Z,15.23
2022-11-29T07:38:04.863Z,18.10
2022-11-29T07:39:25.449Z,23.55
2022-11-29T07:40:49.281Z,24.30
2022-11-29T07:42:06.609Z,24.33
2022-11-29T07:43:33.036Z,28.95
2022-11-29T07:44:44.716Z,24.60
2022-11-29T07:45:57.052Z,26.58
2022-11-29T07:47:09.148Z,30.50
2022-11-29T07:48:20.686Z,38.05
2022-11-29T07:49:32.153Z,23.77
2022-11-29T07:50:44.187Z,22.30
2022-11-29T07:51:56.169Z,23.73
2022-11-29T07:53:09.376Z,18.25
2022-11-29T07:54:22.166Z,15.80
2022-11-29T07:55:35.134Z,10.55
2022-11-29T07:56:46.850Z,13.32
2022-11-29T07:57:58.320Z,16.52
2022-11-29T07:59:12.938Z,18.92
2022-11-29T08:00:24.508Z,26.55
2022-11-29T08:01:36.021Z,23.50
2022-11-29T08:02:48.315Z,19.42
2022-11-29T08:03:59.754Z,9.68
2022-11-29T08:05:11.517Z,14.10
2022-11-29T08:06:26.449Z,10.23
2022-11-29T08:07:38.624Z,11.25
2022-11-29T08:08:50.116Z,14.23
2022-11-29T08:10:02.051Z,12.98
2022-11-29T08:11:13.523Z,18.20
2022-11-29T08:12:24.974Z,16.25
2022-11-29T08:13:36.608Z,19.42
2022-11-29T08:14:48.249Z,19.85
2022-11-29T08:15:59.904Z,15.50
2022-11-29T08:17:11.372Z,18.55
2022-11-29T08:18:22.809Z,19.55
2022-11-29T08:19:34.332Z,23.73
2022-11-29T08:20:46.416Z,25.50
2022-11-29T08:21:57.934Z,38.35
2022-11-29T08:23:10.919Z,33.38
2022-11-29T08:24:22.534Z,31.17
2022-11-29T08:25:33.983Z,28.50
2022-11-29T08:26:45.444Z,31.48
2022-11-29T08:27:56.933Z,23.90
2022-11-29T08:29:08.353Z,26.08
2022-11-29T08:30:22.284Z,52.53
2022-11-29T08:31:34.070Z,40.10
2022-11-29T08:32:51.100Z,83.85
2022-11-29T08:34:04.834Z,52.00
2022-11-29T08:35:17.034Z,51.47
2022-11-29T08:36:28.508Z,43.00
2022-11-29T08:37:39.963Z,38.83
2022-11-29T08:38:57.154Z,142.75
2022-11-29T08:40:13.681Z,43.63
2022-11-29T08:41:25.129Z,15.82
2022-11-29T08:42:36.800Z,14.75
2022-11-29T08:43:48.330Z,39.65
2022-11-29T08:44:59.859Z,82.43
2022-11-29T08:46:16.705Z,134.20
2022-11-29T08:47:35.867Z,23.50
2022-11-29T08:48:47.914Z,14.30
2022-11-29T08:50:02.046Z,16.50
2022-11-29T08:51:13.843Z,13.10
2022-11-29T08:52:43.924Z,12.63
2022-11-29T08:53:55.360Z,34.63
2022-11-29T08:55:07.000Z,20.67
2022-11-29T08:57:51.496Z,40.78
2022-11-29T08:59:03.749Z,28.17
2022-11-29T09:00:15.807Z,15.30
2022-11-29T09:01:27.445Z,12.73
2022-11-29T09:02:39.004Z,16.55
2022-11-29T09:04:07.786Z,28.35
2022-11-29T09:05:19.413Z,30.90
2022-11-29T09:06:32.073Z,18.90
2022-11-29T09:07:43.668Z,17.38
2022-11-29T09:08:56.525Z,12.57
2022-11-29T09:10:09.381Z,14.82
2022-11-29T09:11:22.206Z,14.95
2022-11-29T09:12:34.275Z,15.10
2022-11-29T09:13:46.787Z,12.30
2022-11-29T09:14:58.671Z,16.48
2022-11-29T09:16:11.610Z,11.90
2022-11-29T09:17:23.080Z,15.10
2022-11-29T09:18:34.535Z,14.55
2022-11-29T09:19:46.006Z,14.75
2022-11-29T09:20:57.547Z,13.98
2022-11-29T09:22:09.191Z,14.50
2022-11-29T09:23:20.637Z,13.02
2022-11-29T09:24:33.441Z,17.02
2022-11-29T09:25:48.553Z,13.57
2022-11-29T09:27:00.080Z,18.17
2022-11-29T09:28:12.647Z,16.25
2022-11-29T09:29:24.049Z,16.80
2022-11-29T09:30:37.993Z,14.57
2022-11-29T09:31:49.572Z,14.38
2022-11-29T09:33:02.846Z,14.50
2022-11-29T09:34:15.064Z,16.17
2022-11-29T09:35:26.545Z,15.73
2022-11-29T09:36:38.053Z,18.67
2022-11-29T09:37:49.517Z,18.33
2022-11-29T09:39:02.856Z,14.88
2022-11-29T09:40:19.666Z,15.70
2022-11-29T09:41:49.657Z,17.63
2022-11-29T09:43:06.375Z,22.20
2022-11-29T09:44:36.251Z,32.05
2022-11-29T09:45:49.311Z,25.27
2022-11-29T09:47:08.373Z,17.30
2022-11-29T09:48:22.899Z,14.25
2022-11-29T09:49:37.546Z,16.40
2022-11-29T09:50:54.070Z,16.95
2022-11-29T09:52:12.046Z,11.88
2022-11-29T09:53:35.958Z,9.02
2022-11-29T09:55:10.818Z,16.70
2022-11-29T09:56:27.058Z,16.23
2022-11-29T09:57:38.715Z,17.45
2022-11-29T09:58:50.138Z,15.15
2022-11-29T10:00:07.004Z,23.17
2022-11-29T10:01:22.154Z,17.02
2022-11-29T10:02:56.593Z,12.40
2022-11-29T10:04:13.983Z,13.38
2022-11-29T10:05:31.456Z,15.88
2022-11-29T10:06:51.784Z,43.63
2022-11-29T10:08:06.128Z,20.08
2022-11-29T10:09:33.725Z,32.78
2022-11-29T10:10:49.171Z,18.83
2022-11-29T10:12:05.292Z,15.02
2022-11-29T10:13:26.055Z,11.57
2022-11-29T10:14:44.049Z,12.68
2022-11-29T10:16:06.706Z,17.77
2022-11-29T10:17:21.217Z,11.52
2022-11-29T10:18:34.712Z,21.83
2022-11-29T10:19:50.772Z,29.02
2022-11-29T10:21:10.252Z,40.67
2022-11-29T10:22:27.896Z,45.58
2022-11-29T10:23:43.140Z,59.88
2022-11-29T10:24:57.467Z,36.20
2022-11-29T10:26:11.192Z,36.58
2022-11-29T10:27:24.907Z,33.08
2022-11-29T10:28:37.410Z,12.55
2022-11-29T10:29:51.202Z,12.75
2022-11-29T10:31:13.074Z,24.17
2022-11-29T10:32:25.549Z,18.17
2022-11-29T10:33:40.264Z,26.40
2022-11-29T10:34:51.994Z,259.38
2022-11-29T10:36:04.997Z,146.82
2022-11-29T10:37:17.945Z,57.05
2022-11-29T10:38:31.167Z,20.00
2022-11-29T10:40:12.403Z,17.55
2022-11-29T10:41:23.964Z,13.27
2022-11-29T10:42:52.400Z,9.05
2022-11-29T10:44:04.011Z,20.25
2022-11-29T10:45:38.997Z,12.93
2022-11-29T10:46:50.913Z,29.52
2022-11-29T10:48:04.088Z,6.05
2022-11-29T10:49:17.739Z,7.45
2022-11-29T10:50:30.757Z,7.28
2022-11-29T10:51:42.759Z,7.32
2022-11-29T10:52:59.934Z,8.82
2022-11-29T10:54:34.945Z,7.90
2022-11-29T10:55:46.450Z,12.52
2022-11-29T10:57:00.011Z,12.95
2022-11-29T10:58:13.585Z,29.27
2022-11-29T10:59:26.905Z,16.25
2022-11-29T11:00:44.553Z,10.95
2022-11-29T11:01:56.210Z,9.50
2022-11-29T11:03:37.006Z,12.90
2022-11-29T11:04:50.108Z,32.28
2022-11-29T11:06:07.803Z,11.20
2022-11-29T11:07:39.719Z,15.55
2022-11-29T11:09:12.228Z,65.80
2022-11-29T11:10:27.990Z,20.05
2022-11-29T11:11:39.989Z,18.65
2022-11-29T11:13:05.331Z,30.25
2022-11-29T11:14:22.303Z,50.35
2022-11-29T11:15:33.981Z,15.30
2022-11-29T11:16:45.738Z,12.38
2022-11-29T11:17:59.589Z,10.93
2022-11-29T11:19:30.977Z,7.13
2022-11-29T11:20:43.843Z,22.17
2022-11-29T11:21:56.436Z,32.88
2022-11-29T11:23:20.835Z,7.47
2022-11-29T11:24:42.128Z,96.75
2022-11-29T11:25:58.008Z,23.90
2022-11-29T11:27:09.825Z,9.38
2022-11-29T11:28:22.882Z,4.82
2022-11-29T11:29:42.318Z,6.43
2022-11-29T11:31:05.734Z,5.45
2022-11-29T11:32:18.759Z,9.18
2022-11-29T11:33:30.253Z,6.30
2022-11-29T11:34:50.483Z,14.57
2022-11-29T11:36:05.107Z,13.85
2022-11-29T11:37:29.937Z,7.43
2022-11-29T11:38:49.310Z,9.15
2022-11-29T11:40:17.934Z,9.35
2022-11-29T11:41:49.288Z,8.65
2022-11-29T11:43:02.379Z,10.27
2022-11-29T11:44:49.709Z,21.60
2022-11-29T11:46:01.784Z,13.10
2022-11-29T11:47:15.538Z,11.52
2022-11-29T11:48:27.287Z,14.48
2022-11-29T11:49:48.169Z,12.43
2022-11-29T11:51:00.658Z,17.25
2022-11-29T11:52:37.066Z,14.85
2022-11-29T11:53:56.889Z,14.63
2022-11-29T11:55:27.318Z,14.55
2022-11-29T11:56:38.946Z,10.20
2022-11-29T11:58:03.396Z,9.88
2022-11-29T11:59:21.377Z,10.82
2022-11-29T12:02:24.704Z,9.07
2022-11-29T12:03:55.289Z,14.77
2022-11-29T12:05:12.044Z,19.10
2022-11-29T12:06:23.525Z,15.25
2022-11-29T12:08:07.175Z,14.10
2022-11-29T12:09:19.483Z,13.75
2022-11-29T12:10:32.471Z,11.13
2022-11-29T12:11:51.496Z,11.70
2022-11-29T12:13:04.080Z,13.43
2022-11-29T12:14:22.495Z,10.20
2022-11-29T12:15:38.663Z,12.57
2022-11-29T12:16:52.919Z,21.63
2022-11-29T12:18:08.531Z,22.20
2022-11-29T12:19:25.330Z,24.38
2022-11-29T12:20:36.725Z,18.42
2022-11-29T12:21:52.589Z,14.95
2022-11-29T12:23:19.486Z,6.57
2022-11-29T12:24:37.997Z,13.07
2022-11-29T12:25:52.144Z,10.25
2022-11-29T12:27:04.661Z,10.48
2022-11-29T12:28:20.404Z,10.32
2022-11-29T12:29:33.678Z,16.20
2022-11-29T12:30:53.771Z,13.60
2022-11-29T12:32:11.281Z,14.50
2022-11-29T12:33:34.741Z,10.77
2022-11-29T12:35:06.452Z,7.82
2022-11-29T12:36:18.583Z,14.23
2022-11-29T12:37:30.095Z,10.93
2022-11-29T12:38:59.946Z,14.70
2022-11-29T12:40:20.977Z,17.63
2022-11-29T12:41:50.912Z,15.20
2022-11-29T12:43:28.514Z,12.68
2022-11-29T12:44:40.606Z,12.85
2022-11-29T12:45:52.040Z,10.40
2022-11-29T12:47:34.521Z,10.90
2022-11-29T12:48:42.724Z,14.82
2022-11-29T12:49:54.246Z,13.38
2022-11-29T12:51:11.746Z,17.48
2022-11-29T12:52:26.179Z,12.23
2022-11-29T12:53:44.386Z,9.68
2022-11-29T12:55:08.217Z,14.05
2022-11-29T12:56:42.778Z,11.02
2022-11-29T12:57:57.076Z,9.00
2022-11-29T12:59:22.834Z,8.60
2022-11-29T13:00:53.101Z,11.50
2022-11-29T13:02:10.804Z,10.45
2022-11-29T13:03:41.383Z,14.45
2022-11-29T13:04:59.988Z,12.40
2022-11-29T13:06:12.447Z,16.02
2022-11-29T13:07:24.047Z,14.98
2022-11-29T13:08:49.578Z,13.32
2022-11-29T13:10:21.383Z,12.15
2022-11-29T13:11:38.723Z,9.27
2022-11-29T13:13:10.465Z,13.30
2022-11-29T13:14:42.578Z,9.80
2022-11-29T13:15:59.546Z,26.55
2022-11-29T13:17:23.920Z,26.35
2022-11-29T13:18:39.796Z,23.23
2022-11-29T13:19:53.821Z,29.15
2022-11-29T13:21:13.064Z,15.15
2022-11-29T13:22:27.323Z,23.02
2022-11-29T13:25:30.731Z,9.18
2022-11-29T13:26:43.569Z,9.68
2022-11-29T13:27:58.372Z,9.82
2022-11-29T13:29:14.906Z,7.60
2022-11-29T13:30:26.407Z,7.47
2022-11-29T13:31:38.873Z,9.82
2022-11-29T13:32:54.503Z,10.38
2022-11-29T13:34:18.155Z,11.68
2022-11-29T13:35:35.435Z,7.78
2022-11-29T13:36:49.902Z,16.73
2022-11-29T13:38:08.482Z,20.27
2022-11-29T13:39:25.954Z,21.00
2022-11-29T13:40:38.642Z,22.63
2022-11-29T13:42:10.388Z,36.38
2022-11-29T13:43:33.156Z,39.47
2022-11-29T13:44:58.968Z,31.85
2022-11-29T13:46:30.130Z,27.48
2022-11-29T13:47:48.947Z,20.60
2022-11-29T13:49:00.564Z,23.17
2022-11-29T13:50:31.065Z,14.93
2022-11-29T13:51:42.702Z,9.45
2022-11-29T13:53:02.529Z,18.80
2022-11-29T13:54:33.145Z,22.30
2022-11-29T13:55:45.931Z,25.20
2022-11-29T13:57:07.959Z,21.48
2022-11-29T13:58:32.279Z,21.63
2022-11-29T13:59:48.416Z,27.35
2022-11-29T14:01:07.152Z,21.50
2022-11-29T14:02:36.968Z,24.65
2022-11-29T14:04:02.312Z,14.18
2022-11-29T14:05:27.613Z,10.02
2022-11-29T14:06:39.225Z,15.00
2022-11-29T14:08:11.767Z,16.35
2022-11-29T14:09:31.566Z,23.90
2022-11-29T14:10:47.909Z,23.70
2022-11-29T14:11:59.455Z,21.17
2022-11-29T14:13:14.434Z,26.55
2022-11-29T14:14:29.270Z,32.13
2022-11-29T14:15:42.074Z,39.53
2022-11-29T14:16:57.770Z,42.53
2022-11-29T14:18:29.194Z,51.05
2022-11-29T14:19:40.709Z,42.17
2022-11-29T14:20:55.953Z,38.38
2022-11-29T14:22:18.300Z,34.70
2022-11-29T14:23:31.795Z,30.40
2022-11-29T14:24:54.888Z,31.45
2022-11-29T14:26:06.278Z,22.13
2022-11-29T14:27:20.693Z,25.92
2022-11-29T14:28:33.818Z,18.75
2022-11-29T14:29:48.823Z,21.10
2022-11-29T14:31:03.657Z,17.85
2022-11-29T14:32:33.675Z,16.58
2022-11-29T14:34:03.625Z,18.27
2022-11-29T14:35:19.181Z,23.90
2022-11-29T14:36:30.596Z,20.73
2022-11-29T14:37:45.219Z,15.20
2022-11-29T14:38:56.736Z,22.63
2022-11-29T14:40:37.415Z,20.15
2022-11-29T14:42:07.952Z,21.67
2022-11-29T14:43:22.392Z,31.20
2022-11-29T14:44:34.700Z,38.20
2022-11-29T14:45:46.218Z,36.10
2022-11-29T14:47:13.835Z,37.28
2022-11-29T14:48:30.272Z,37.47
2022-11-29T14:49:42.644Z,53.00
2022-11-29T14:51:13.017Z,46.85
2022-11-29T14:52:27.402Z,47.08
2022-11-29T14:53:39.817Z,54.30
2022-11-29T14:54:54.602Z,50.50
2022-11-29T14:56:25.235Z,46.25
2022-11-29T14:57:55.283Z,36.05
2022-11-29T14:59:25.279Z,27.17
2022-11-29T15:00:39.779Z,34.35
2022-11-29T15:01:51.375Z,21.77
2022-11-29T15:03:27.086Z,26.20
2022-11-29T15:04:38.854Z,17.90
2022-11-29T15:06:01.216Z,21.48
2022-11-29T15:07:18.314Z,27.77
2022-11-29T15:08:40.793Z,19.75
2022-11-29T15:09:54.980Z,14.45
2022-11-29T15:11:12.438Z,13.15
2022-11-29T15:12:37.113Z,17.50
2022-11-29T15:14:14.985Z,29.05
2022-11-29T15:15:26.396Z,36.17
2022-11-29T15:16:47.402Z,37.03
2022-11-29T15:18:07.873Z,24.15
2022-11-29T15:19:37.860Z,25.50
2022-11-29T15:21:08.130Z,32.65
2022-11-29T15:22:26.577Z,36.42
2022-11-29T15:23:42.951Z,49.33
2022-11-29T15:25:00.135Z,29.85
2022-11-29T15:26:19.829Z,34.88
2022-11-29T15:27:31.318Z,37.15
2022-11-29T15:28:42.848Z,43.28
2022-11-29T15:29:54.808Z,31.92
2022-11-29T15:31:07.882Z,37.45
2022-11-29T15:32:19.502Z,43.22
2022-11-29T15:33:31.657Z,36.20
2022-11-29T15:34:48.278Z,36.35
2022-11-29T15:36:06.429Z,37.97
2022-11-29T15:37:23.149Z,23.85
2022-11-29T15:38:48.402Z,40.88
2022-11-29T15:40:05.038Z,31.80
2022-11-29T15:41:21.345Z,50.95
2022-11-29T15:42:49.065Z,36.35
2022-11-29T15:44:05.680Z,48.92
2022-11-29T15:45:36.569Z,38.08
2022-11-29T15:46:48.955Z,37.67
2022-11-29T15:48:11.500Z,40.47
2022-11-29T15:49:27.559Z,45.70
2022-11-29T15:50:41.393Z,61.13
2022-11-29T15:51:59.223Z,62.22
2022-11-29T15:53:14.476Z,59.08
2022-11-29T15:54:33.374Z,57.63
2022-11-29T15:55:46.409Z,62.63
2022-11-29T15:57:04.343Z,80.57
2022-11-29T15:58:17.063Z,73.00
2022-11-29T15:59:32.345Z,70.07
2022-11-29T16:00:47.047Z,69.10
2022-11-29T16:02:01.478Z,72.15
2022-11-29T16:03:18.413Z,64.07
2022-11-29T16:04:31.241Z,72.40
2022-11-29T16:05:42.885Z,55.30
2022-11-29T16:06:55.273Z,61.08
2022-11-29T16:08:13.107Z,59.72
2022-11-29T16:09:36.929Z,49.88
2022-11-29T16:10:51.610Z,48.75
2022-11-29T16:12:03.246Z,45.78
2022-11-29T16:13:26.971Z,44.40
2022-11-29T16:14:48.422Z,43.30
2022-11-29T16:16:17.045Z,44.10
2022-11-29T16:17:32.925Z,40.85
2022-11-29T16:18:45.502Z,36.17
2022-11-29T16:20:06.172Z,47.97
2022-11-29T16:21:24.969Z,57.78
2022-11-29T16:22:36.485Z,51.40
2022-11-29T16:23:48.023Z,47.25
2022-11-29T16:25:04.461Z,54.67
2022-11-29T16:26:34.028Z,69.15
2022-11-29T16:27:45.850Z,54.00
2022-11-29T16:28:59.936Z,50.95
2022-11-29T16:30:24.763Z,53.75
2022-11-29T16:31:37.731Z,59.80
2022-11-29T16:32:56.839Z,54.35
2022-11-29T16:34:28.536Z,75.03
2022-11-29T16:35:40.094Z,62.05
2022-11-29T16:37:01.125Z,57.75
2022-11-29T16:38:22.688Z,80.90
2022-11-29T16:39:35.315Z,70.35
2022-11-29T16:41:03.460Z,61.10
2022-11-29T16:42:26.224Z,46.42
2022-11-29T16:43:43.940Z,39.40
2022-11-29T16:45:02.151Z,33.13
2022-11-29T16:46:19.892Z,31.70
2022-11-29T16:47:32.651Z,27.70
2022-11-29T16:48:44.104Z,26.50
2022-11-29T16:50:01.500Z,46.83
2022-11-29T16:51:13.621Z,54.45
2022-11-29T16:52:32.493Z,42.53
2022-11-29T16:53:47.898Z,38.53
2022-11-29T16:54:59.892Z,33.67